createdAt,value
2023-04-05T00:00:39.745Z,102359.88
2023-04-05T00:03:10.087Z,102353.81
2023-04-05T00:05:37.879Z,102347.88
2023-04-05T00:08:08.190Z,102349.72
2023-04-05T00:10:35.875Z,102347.22
2023-04-05T00:13:04.964Z,102336.09
2023-04-05T00:15:32.920Z,102344.88
2023-04-05T00:18:03.818Z,102335.53
2023-04-05T00:20:31.743Z,102327.75
2023-04-05T00:22:59.482Z,102321.84
2023-04-05T00:25:27.332Z,102335.69
2023-04-05T00:27:55.063Z,102332.34
2023-04-05T00:30:24.189Z,102329.88
2023-04-05T00:32:52.058Z,102329.13
2023-04-05T00:35:20.304Z,102333.56
2023-04-05T00:37:48.026Z,102333.69
2023-04-05T00:40:15.827Z,102336.44
2023-04-05T00:42:43.497Z,102329.56
2023-04-05T00:45:11.525Z,102325.38
2023-04-05T00:47:42.016Z,102327.28
2023-04-05T00:50:11.276Z,102322.09
2023-04-05T00:52:39.289Z,102314.38
2023-04-05T00:55:08.394Z,102311.81
2023-04-05T00:57:39.163Z,102312.78
2023-04-05T01:00:09.500Z,102311.19
2023-04-05T01:02:46.926Z,102313.09
2023-04-05T01:05:23.177Z,102310.59
2023-04-05T01:07:53.686Z,102308.09
2023-04-05T01:10:23.367Z,102309.94
2023-04-05T01:12:51.504Z,102315.25
2023-04-05T01:15:19.407Z,102312.78
2023-04-05T01:17:49.160Z,102303.47
2023-04-05T01:20:16.933Z,102300.78
2023-04-05T01:23:25.044Z,102303.47
2023-04-05T01:26:32.949Z,102293.97
2023-04-05T01:29:30.337Z,102292.34
2023-04-05T01:32:02.518Z,102295.13
2023-04-05T01:34:37.095Z,102288.28
2023-04-05T01:37:08.908Z,102301.44
2023-04-05T01:39:37.151Z,102291.91
2023-04-05T01:42:05.206Z,102295.47
2023-04-05T01:44:32.972Z,102288.69
2023-04-05T01:47:02.076Z,102290.50
2023-04-05T01:49:29.722Z,102287.06
2023-04-05T01:51:57.429Z,102287.19
2023-04-05T01:54:25.134Z,102282.03
2023-04-05T01:56:52.820Z,102275.09
2023-04-05T01:59:20.697Z,102283.91
2023-04-05T02:01:48.458Z,102273.50
2023-04-05T02:04:17.529Z,102267.44
2023-04-05T02:06:45.282Z,102271.84
2023-04-05T02:09:13.161Z,102277.19
2023-04-05T02:11:40.810Z,102279.94
2023-04-05T02:14:09.541Z,102276.59
2023-04-05T02:16:37.367Z,102281.03
2023-04-05T02:19:05.960Z,102275.97
2023-04-05T02:21:36.740Z,102273.38
2023-04-05T02:24:04.673Z,102269.16
2023-04-05T02:26:32.337Z,102270.06
2023-04-05T02:29:00.007Z,102258.81
2023-04-05T02:31:27.768Z,102264.16
2023-04-05T02:33:56.090Z,102263.41
2023-04-05T02:36:24.251Z,102266.13
2023-04-05T02:38:53.284Z,102258.25
2023-04-05T02:41:22.731Z,102254.84
2023-04-05T02:43:50.608Z,102262.84
2023-04-05T02:46:18.384Z,102257.72
2023-04-05T02:48:46.801Z,102261.22
2023-04-05T02:51:14.417Z,102263.00
2023-04-05T02:53:42.456Z,102265.69
2023-04-05T02:56:13.623Z,102256.19
2023-04-05T02:58:41.699Z,102257.09
2023-04-05T03:01:09.391Z,102260.59
2023-04-05T03:03:37.576Z,102259.78
2023-04-05T03:06:10.219Z,102261.50
2023-04-05T03:08:38.801Z,102253.69
2023-04-05T03:11:06.673Z,102259.88
2023-04-05T03:13:36.029Z,102256.47
2023-04-05T03:16:03.690Z,102259.09
2023-04-05T03:18:31.469Z,102267.00
2023-04-05T03:20:59.779Z,102260.16
2023-04-05T03:23:29.671Z,102247.28
2023-04-05T03:26:00.013Z,102255.13
2023-04-05T03:28:27.862Z,102255.19
2023-04-05T03:30:57.142Z,102250.06
2023-04-05T03:33:25.150Z,102252.81
2023-04-05T03:35:52.827Z,102242.41
2023-04-05T03:38:20.614Z,102240.69
2023-04-05T03:40:48.274Z,102247.72
2023-04-05T03:43:16.840Z,102246.94
2023-04-05T03:45:44.588Z,102237.50
2023-04-05T03:48:13.770Z,102237.50
2023-04-05T03:50:41.391Z,102238.44
2023-04-05T03:53:09.388Z,102238.44
2023-04-05T03:55:37.057Z,102232.25
2023-04-05T03:58:04.736Z,102231.41
2023-04-05T04:00:32.627Z,102234.94
2023-04-05T04:03:00.375Z,102231.47
2023-04-05T04:05:29.494Z,102233.28
2023-04-05T04:07:57.124Z,102226.34
2023-04-05T04:10:24.861Z,102229.00
2023-04-05T04:12:52.440Z,102222.94
2023-04-05T04:15:20.542Z,102222.94
2023-04-05T04:17:48.221Z,102223.00
2023-04-05T04:20:15.894Z,102210.94
2023-04-05T04:22:45.862Z,102221.41
2023-04-05T04:25:14.667Z,102225.84
2023-04-05T04:27:43.523Z,102222.41
2023-04-05T04:30:13.189Z,102219.94
2023-04-05T04:32:58.191Z,102221.66
2023-04-05T04:35:29.016Z,102227.81
2023-04-05T04:37:59.234Z,102219.13
2023-04-05T04:40:29.420Z,102211.44
2023-04-05T04:42:58.730Z,102214.84
2023-04-05T04:45:26.579Z,102211.44
2023-04-05T04:47:54.793Z,102214.91
2023-04-05T04:50:22.699Z,102213.19
2023-04-05T04:52:50.441Z,102208.88
2023-04-05T04:55:25.265Z,102210.59
2023-04-05T04:57:53.623Z,102206.31
2023-04-05T05:00:23.000Z,102209.84
2023-04-05T05:02:52.292Z,102211.66
2023-04-05T05:05:22.789Z,102211.66
2023-04-05T05:07:52.605Z,102204.88
2023-04-05T05:10:22.561Z,102213.41
2023-04-05T05:12:51.705Z,102214.31
2023-04-05T05:15:20.263Z,102210.84
2023-04-05T05:17:53.897Z,102223.03
2023-04-05T05:20:22.380Z,102222.25
2023-04-05T05:22:50.081Z,102211.84
2023-04-05T05:25:18.397Z,102223.19
2023-04-05T05:27:49.635Z,102220.56
2023-04-05T05:30:17.423Z,102216.22
2023-04-05T05:32:45.265Z,102215.31
2023-04-05T05:35:13.060Z,102217.88
2023-04-05T05:37:41.251Z,102199.66
2023-04-05T05:40:09.943Z,102217.03
2023-04-05T05:42:37.554Z,102220.44
2023-04-05T05:45:07.498Z,102218.66
2023-04-05T05:47:35.589Z,102208.19
2023-04-05T05:50:03.874Z,102212.50
2023-04-05T05:52:31.567Z,102205.50
2023-04-05T05:54:59.253Z,102218.56
2023-04-05T05:57:27.348Z,102206.31
2023-04-05T05:59:55.062Z,102220.13
2023-04-05T06:02:24.255Z,102217.47
2023-04-05T06:04:51.998Z,102205.19
2023-04-05T06:07:19.748Z,102213.00
2023-04-05T06:09:47.639Z,102200.75
2023-04-05T06:12:15.344Z,102197.13
2023-04-05T06:14:43.117Z,102205.78
2023-04-05T06:17:10.929Z,102216.06
2023-04-05T06:19:40.166Z,102205.53
2023-04-05T06:22:07.851Z,102204.63
2023-04-05T06:24:35.654Z,102210.53
2023-04-05T06:27:03.335Z,102201.63
2023-04-05T06:29:31.242Z,102209.34
2023-04-05T06:31:59.024Z,102211.84
2023-04-05T06:34:26.682Z,102205.66
2023-04-05T06:36:56.276Z,102214.19
2023-04-05T06:39:23.903Z,102218.41
2023-04-05T06:41:51.608Z,102212.97
2023-04-05T06:44:19.382Z,102213.75
2023-04-05T06:46:47.249Z,102213.53
2023-04-05T06:49:15.139Z,102214.22
2023-04-05T06:51:42.826Z,102204.59
2023-04-05T06:54:12.006Z,102204.28
2023-04-05T06:56:40.080Z,102212.75
2023-04-05T06:59:07.798Z,102211.72
2023-04-05T07:01:35.893Z,102198.41
2023-04-05T07:04:03.711Z,102201.69
2023-04-05T07:06:33.861Z,102203.19
2023-04-05T07:09:01.583Z,102197.72
2023-04-05T07:11:32.696Z,102201.00
2023-04-05T07:14:00.830Z,102193.81
2023-04-05T07:16:28.690Z,102199.56
2023-04-05T07:18:57.238Z,102195.00
2023-04-05T07:21:24.952Z,102199.09
2023-04-05T07:23:55.905Z,102198.75
2023-04-05T07:26:23.577Z,102212.44
2023-04-05T07:28:53.407Z,102206.91
2023-04-05T07:31:21.139Z,102211.88
2023-04-05T07:33:48.821Z,102209.84
2023-04-05T07:36:16.789Z,102204.22
2023-04-05T07:38:44.830Z,102203.16
2023-04-05T07:41:12.580Z,102198.63
2023-04-05T07:43:40.257Z,102195.72
2023-04-05T07:46:09.377Z,102204.91
2023-04-05T07:48:37.099Z,102202.16
2023-04-05T07:51:07.062Z,102207.84
2023-04-05T07:53:34.924Z,102201.44
2023-04-05T07:56:04.951Z,102201.84
2023-04-05T07:58:32.747Z,102201.56
2023-04-05T08:01:01.714Z,102199.53
2023-04-05T08:03:31.910Z,102199.22
2023-04-05T08:05:59.893Z,102196.41
2023-04-05T08:08:27.655Z,102193.41
2023-04-05T08:10:55.614Z,102193.94
2023-04-05T08:13:23.402Z,102191.75
2023-04-05T08:15:51.116Z,102194.91
2023-04-05T08:18:19.278Z,102199.00
2023-04-05T08:20:52.293Z,102196.97
2023-04-05T08:23:19.960Z,102194.00
2023-04-05T08:25:47.660Z,102185.78
2023-04-05T08:28:15.423Z,102187.91
2023-04-05T08:30:43.431Z,102175.47
2023-04-05T08:33:11.571Z,102178.59
2023-04-05T08:35:39.920Z,102184.16
2023-04-05T08:38:09.216Z,102184.50
2023-04-05T08:40:42.648Z,102183.03
2023-04-05T08:43:12.496Z,102180.72
2023-04-05T08:45:45.942Z,102173.63
2023-04-05T08:48:13.660Z,102166.44
2023-04-05T08:50:41.669Z,102179.94
2023-04-05T08:53:11.325Z,102181.56
2023-04-05T08:55:39.273Z,102174.28
2023-04-05T08:58:11.583Z,102179.25
2023-04-05T09:00:39.727Z,102173.88
2023-04-05T09:03:08.249Z,102165.81
2023-04-05T09:05:38.088Z,102166.28
2023-04-05T09:08:06.717Z,102173.13
2023-04-05T09:10:35.776Z,102165.69
2023-04-05T09:13:03.988Z,102169.72
2023-04-05T09:15:31.814Z,102162.56
2023-04-05T09:17:59.480Z,102168.53
2023-04-05T09:20:27.164Z,102155.22
2023-04-05T09:22:57.426Z,102156.84
2023-04-05T09:25:38.714Z,102171.50
2023-04-05T09:28:07.098Z,102167.84
2023-04-05T09:30:37.012Z,102161.41
2023-04-05T09:33:05.937Z,102168.94
2023-04-05T09:35:34.006Z,102165.81
2023-04-05T09:38:02.957Z,102162.84
2023-04-05T09:40:45.526Z,102159.06
2023-04-05T09:43:13.958Z,102162.16
2023-04-05T09:45:42.673Z,102158.19
2023-04-05T09:48:10.930Z,102164.22
2023-04-05T09:50:39.070Z,102156.41
2023-04-05T09:53:15.743Z,102164.16
2023-04-05T09:55:45.283Z,102164.84
2023-04-05T09:58:13.587Z,102164.53
2023-04-05T10:00:55.700Z,102154.72
2023-04-05T10:03:28.465Z,102143.25
2023-04-05T10:05:57.053Z,102150.66
2023-04-05T10:08:25.663Z,102151.59
2023-04-05T10:10:56.245Z,102141.22
2023-04-05T10:13:23.990Z,102150.31
2023-04-05T10:15:52.431Z,102156.00
2023-04-05T10:18:23.252Z,102143.56
2023-04-05T10:20:51.956Z,102137.03
2023-04-05T10:23:24.140Z,102139.34
2023-04-05T10:26:01.825Z,102139.66
2023-04-05T10:28:32.740Z,102133.00
2023-04-05T10:31:04.136Z,102132.78
2023-04-05T10:33:38.894Z,102133.97
2023-04-05T10:36:16.460Z,102128.09
2023-04-05T10:39:04.210Z,102111.50
2023-04-05T10:41:36.335Z,102120.69
2023-04-05T10:44:12.067Z,102112.25
2023-04-05T10:46:51.867Z,102116.31
2023-04-05T10:49:23.746Z,102115.47
2023-04-05T10:51:51.911Z,102116.06
2023-04-05T10:54:21.028Z,102114.44
2023-04-05T10:56:50.128Z,102115.78
2023-04-05T10:59:18.320Z,102110.97
2023-04-05T11:01:47.359Z,102107.78
2023-04-05T11:04:16.621Z,102104.50
2023-04-05T11:06:48.059Z,102106.81
2023-04-05T11:09:17.670Z,102106.94
2023-04-05T11:11:46.665Z,102093.84
2023-04-05T11:14:23.592Z,102096.59
2023-04-05T11:16:54.296Z,102095.50
2023-04-05T11:19:22.267Z,102094.75
2023-04-05T11:22:02.155Z,102080.50
2023-04-05T11:24:53.816Z,102088.75
2023-04-05T11:27:26.789Z,102086.59
2023-04-05T11:29:56.611Z,102075.53
2023-04-05T11:32:24.633Z,102074.88
2023-04-05T11:35:00.721Z,102075.50
2023-04-05T11:38:33.190Z,102073.44
2023-04-05T11:41:08.360Z,102064.91
2023-04-05T11:43:38.319Z,102057.41
2023-04-05T11:46:06.334Z,102066.75
2023-04-05T11:48:34.826Z,102064.28
2023-04-05T11:51:07.993Z,102067.53
2023-04-05T11:53:37.276Z,102058.28
2023-04-05T11:56:09.773Z,102054.63
2023-04-05T11:58:38.133Z,102057.03
2023-04-05T12:01:07.539Z,102054.69
2023-04-05T12:03:35.727Z,102058.88
2023-04-05T12:06:04.350Z,102043.88
2023-04-05T12:08:41.885Z,102045.13
2023-04-05T12:11:10.862Z,102033.06
2023-04-05T12:13:39.588Z,102034.47
2023-04-05T12:16:09.338Z,102036.81
2023-04-05T12:18:38.053Z,102027.09
2023-04-05T12:21:08.037Z,102024.78
2023-04-05T12:23:37.333Z,102018.81
2023-04-05T12:26:08.730Z,102028.56
2023-04-05T12:28:53.474Z,102021.69
2023-04-05T12:31:36.376Z,102031.03
2023-04-05T12:34:04.161Z,102039.09
2023-04-05T12:36:32.672Z,102029.81
2023-04-05T12:39:00.607Z,102032.34
2023-04-05T12:41:30.793Z,102033.47
2023-04-05T12:44:01.843Z,102015.88
2023-04-05T12:46:40.593Z,102010.47
2023-04-05T12:49:08.312Z,102005.28
2023-04-05T12:51:36.289Z,102003.59
2023-04-05T12:54:04.400Z,101996.78
2023-04-05T12:56:33.570Z,101996.88
2023-04-05T12:59:01.253Z,101995.53
2023-04-05T13:01:31.253Z,101989.38
2023-04-05T13:04:14.700Z,101993.28
2023-04-05T13:06:43.525Z,101977.03
2023-04-05T13:09:11.180Z,101981.59
2023-04-05T13:11:40.351Z,101980.78
2023-04-05T13:14:08.480Z,101984.16
2023-04-05T13:16:36.250Z,101978.13
2023-04-05T13:19:03.940Z,101968.69
2023-04-05T13:21:32.518Z,101973.56
2023-04-05T13:24:00.274Z,101957.88
2023-04-05T13:26:27.952Z,101954.97
2023-04-05T13:28:57.008Z,101954.13
2023-04-05T13:31:24.733Z,101956.94
2023-04-05T13:33:52.905Z,101950.56
2023-04-05T13:36:20.565Z,101957.66
2023-04-05T13:38:48.215Z,101947.16
2023-04-05T13:41:16.206Z,101936.84
2023-04-05T13:43:43.913Z,101932.28
2023-04-05T13:46:13.050Z,101920.63
2023-04-05T13:48:40.714Z,101921.13
2023-04-05T13:51:08.577Z,101930.72
2023-04-05T13:53:36.473Z,101928.16
2023-04-05T13:56:04.270Z,101930.03
2023-04-05T13:58:31.989Z,101919.69
2023-04-05T14:00:59.774Z,101919.03
2023-04-05T14:03:29.026Z,101924.22
2023-04-05T14:05:56.945Z,101911.00
2023-04-05T14:08:24.706Z,101924.44
2023-04-05T14:10:52.585Z,101919.97
2023-04-05T14:13:20.334Z,101917.88
2023-04-05T14:15:48.100Z,101916.88
2023-04-05T14:18:15.762Z,101922.34
2023-04-05T14:20:44.886Z,101916.41
2023-04-05T14:23:12.623Z,101912.50
2023-04-05T14:25:40.604Z,101907.41
2023-04-05T14:28:08.632Z,101908.38
2023-04-05T14:30:36.656Z,101902.94
2023-04-05T14:33:04.439Z,101899.53
2023-04-05T14:35:32.163Z,101904.50
2023-04-05T14:38:01.202Z,101891.91
2023-04-05T14:40:29.010Z,101888.22
2023-04-05T14:42:56.700Z,101889.41
2023-04-05T14:45:27.141Z,101880.03
2023-04-05T14:47:55.097Z,101878.16
2023-04-05T14:50:23.246Z,101881.53
2023-04-05T14:52:50.995Z,101882.78
2023-04-05T14:55:20.314Z,101880.84
2023-04-05T14:57:48.022Z,101875.53
2023-04-05T15:00:16.521Z,101873.63
2023-04-05T15:02:45.216Z,101869.41
2023-04-05T15:05:13.403Z,101870.25
2023-04-05T15:07:41.143Z,101863.00
2023-04-05T15:10:09.446Z,101863.00
2023-04-05T15:12:38.546Z,101865.44
2023-04-05T15:15:07.232Z,101860.75
2023-04-05T15:17:34.965Z,101857.97
2023-04-05T15:20:02.718Z,101853.63
2023-04-05T15:22:30.815Z,101855.31
2023-04-05T15:24:59.741Z,101856.28
2023-04-05T15:27:27.480Z,101847.59
2023-04-05T15:29:56.638Z,101851.09
2023-04-05T15:32:24.368Z,101847.38
2023-04-05T15:34:52.107Z,101849.09
2023-04-05T15:37:19.800Z,101852.47
2023-04-05T15:39:47.520Z,101856.41
2023-04-05T15:42:15.618Z,101849.25
2023-04-05T15:44:43.998Z,101845.69
2023-04-05T15:47:13.100Z,101843.66
2023-04-05T15:49:40.721Z,101844.84
2023-04-05T15:52:08.897Z,101838.69
2023-04-05T15:54:36.719Z,101844.44
2023-04-05T15:57:04.387Z,101836.59
2023-04-05T15:59:32.177Z,101836.84
2023-04-05T16:01:59.956Z,101841.91
2023-04-05T16:04:29.154Z,101842.13
2023-04-05T16:06:56.867Z,101832.69
2023-04-05T16:09:24.610Z,101836.63
2023-04-05T16:11:52.270Z,101829.47
2023-04-05T16:14:19.934Z,101834.75
2023-04-05T16:16:53.741Z,101840.50
2023-04-05T16:19:23.033Z,101824.72
2023-04-05T16:21:52.765Z,101823.38
2023-04-05T16:24:21.204Z,101820.94
2023-04-05T16:26:49.002Z,101822.84
2023-04-05T16:29:16.678Z,101827.59
2023-04-05T16:31:47.264Z,101823.38
2023-04-05T16:34:15.557Z,101822.63
2023-04-05T16:36:43.480Z,101814.88
2023-04-05T16:39:12.507Z,101818.72
2023-04-05T16:41:40.221Z,101814.81
2023-04-05T16:44:08.012Z,101820.22
2023-04-05T16:46:35.632Z,101812.16
2023-04-05T16:49:03.575Z,101815.97
2023-04-05T16:51:31.577Z,101812.81
2023-04-05T16:53:59.387Z,101807.81
2023-04-05T16:56:28.525Z,101813.72
2023-04-05T16:58:57.460Z,101817.03
2023-04-05T17:01:25.877Z,101805.38
2023-04-05T17:03:53.661Z,101803.91
2023-04-05T17:06:21.477Z,101807.28
2023-04-05T17:08:49.160Z,101812.59
2023-04-05T17:11:17.076Z,101808.13
2023-04-05T17:13:46.965Z,101796.69
2023-04-05T17:16:15.132Z,101795.13
2023-04-05T17:18:43.192Z,101801.03
2023-04-05T17:21:12.303Z,101801.75
2023-04-05T17:23:39.993Z,101800.19
2023-04-05T17:26:07.724Z,101800.31
2023-04-05T17:28:35.824Z,101801.44
2023-04-05T17:31:05.193Z,101800.94
2023-04-05T17:33:33.138Z,101799.44
2023-04-05T17:36:01.751Z,101806.84
2023-04-05T17:38:29.570Z,101801.16
2023-04-05T17:40:59.281Z,101799.03
2023-04-05T17:43:27.023Z,101801.16
2023-04-05T17:45:55.456Z,101803.47
2023-04-05T17:48:24.577Z,101801.13
2023-04-05T17:50:52.362Z,101801.34
2023-04-05T17:53:20.494Z,101804.09
2023-04-05T17:55:48.241Z,101800.78
2023-04-05T17:58:15.964Z,101807.25
2023-04-05T18:00:43.733Z,101803.00
2023-04-05T18:03:13.200Z,101799.63
2023-04-05T18:05:42.928Z,101805.13
2023-04-05T18:08:10.753Z,101801.94
2023-04-05T18:10:38.420Z,101802.16
2023-04-05T18:13:06.487Z,101807.63
2023-04-05T18:15:34.192Z,101800.84
2023-04-05T18:18:02.182Z,101798.50
2023-04-05T18:20:29.833Z,101803.25
2023-04-05T18:22:59.491Z,101802.91
2023-04-05T18:25:27.702Z,101803.97
2023-04-05T18:27:55.814Z,101809.47
2023-04-05T18:30:23.550Z,101807.06
2023-04-05T18:32:51.982Z,101812.75
2023-04-05T18:35:19.813Z,101815.78
2023-04-05T18:37:47.532Z,101807.59
2023-04-05T18:40:16.720Z,101811.41
2023-04-05T18:42:45.309Z,101817.81
2023-04-05T18:45:13.405Z,101813.84
2023-04-05T18:47:41.173Z,101818.59
2023-04-05T18:50:10.580Z,101813.72
2023-04-05T18:52:38.643Z,101818.22
2023-04-05T18:55:07.006Z,101815.03
2023-04-05T18:57:36.591Z,101824.06
2023-04-05T19:00:05.817Z,101820.91
2023-04-05T19:02:33.557Z,101824.00
2023-04-05T19:05:01.240Z,101830.50
2023-04-05T19:07:28.905Z,101833.50
2023-04-05T19:09:56.713Z,101828.50
2023-04-05T19:12:24.400Z,101829.75
2023-04-05T19:14:53.574Z,101828.22
2023-04-05T19:17:21.277Z,101837.94
2023-04-05T19:19:49.296Z,101837.28
2023-04-05T19:22:17.012Z,101834.81
2023-04-05T19:24:44.698Z,101833.31
2023-04-05T19:27:12.440Z,101837.16
2023-04-05T19:29:40.152Z,101835.56
2023-04-05T19:32:09.210Z,101836.88
2023-04-05T19:34:38.120Z,101836.38
2023-04-05T19:37:06.027Z,101832.31
2023-04-05T19:39:34.769Z,101829.09
2023-04-05T19:42:02.466Z,101827.56
2023-04-05T19:44:38.496Z,101827.91
2023-04-05T19:47:10.822Z,101827.22
2023-04-05T19:49:40.334Z,101842.56
2023-04-05T19:52:08.781Z,101830.47
2023-04-05T19:54:37.226Z,101834.25
2023-04-05T19:57:07.179Z,101833.53
2023-04-05T19:59:35.791Z,101830.25
2023-04-05T20:02:04.206Z,101832.97
2023-04-05T20:04:38.856Z,101831.34
2023-04-05T20:07:09.626Z,101836.81
2023-04-05T20:09:38.593Z,101837.06
2023-04-05T20:12:06.695Z,101832.16
2023-04-05T20:14:42.040Z,101829.84
2023-04-05T20:17:11.208Z,101829.94
2023-04-05T20:19:41.785Z,101828.41
2023-04-05T20:22:10.318Z,101828.59
2023-04-05T20:24:38.203Z,101811.44
2023-04-05T20:27:05.978Z,101822.72
2023-04-05T20:29:35.969Z,101828.09
2023-04-05T20:32:04.138Z,101831.72
2023-04-05T20:34:33.102Z,101827.66
2023-04-05T20:37:03.168Z,101831.47
2023-04-05T20:39:31.425Z,101824.75
2023-04-05T20:41:59.226Z,101822.38
2023-04-05T20:44:27.290Z,101832.31
2023-04-05T20:46:57.190Z,101818.44
2023-04-05T20:49:25.391Z,101817.88
2023-04-05T20:51:54.791Z,101817.25
2023-04-05T20:54:24.114Z,101814.72
2023-04-05T20:56:51.695Z,101813.34
2023-04-05T20:59:19.567Z,101807.53
2023-04-05T21:01:47.795Z,101811.13
2023-04-05T21:04:15.718Z,101796.56
2023-04-05T21:06:43.402Z,101800.06
2023-04-05T21:09:11.293Z,101795.91
2023-04-05T21:11:40.635Z,101805.50
2023-04-05T21:14:08.297Z,101800.56
2023-04-05T21:16:36.213Z,101789.09
2023-04-05T21:19:03.851Z,101789.25
2023-04-05T21:21:31.482Z,101789.25
2023-04-05T21:23:59.148Z,101785.09
2023-04-05T21:26:26.815Z,101778.44
2023-04-05T21:28:55.863Z,101784.56
2023-04-05T21:31:23.591Z,101783.88
2023-04-05T21:33:51.313Z,101783.25
2023-04-05T21:36:18.951Z,101780.81
2023-04-05T21:38:46.612Z,101783.56
2023-04-05T21:41:14.375Z,101782.81
2023-04-05T21:43:42.022Z,101779.50
2023-04-05T21:46:11.838Z,101784.81
2023-04-05T21:48:39.547Z,101777.00
2023-04-05T21:51:07.267Z,101785.84
2023-04-05T21:53:35.014Z,101784.97
2023-04-05T21:56:02.662Z,101782.53
2023-04-05T21:58:30.525Z,101780.03
2023-04-05T22:00:59.573Z,101781.06
2023-04-05T22:03:28.813Z,101778.50
2023-04-05T22:05:56.601Z,101776.81
2023-04-05T22:08:24.876Z,101773.53
2023-04-05T22:10:52.740Z,101771.06
2023-04-05T22:13:20.604Z,101771.97
2023-04-05T22:15:48.207Z,101775.53
2023-04-05T22:18:15.951Z,101764.34
2023-04-05T22:20:45.031Z,101775.84
2023-04-05T22:23:12.742Z,101764.56
2023-04-05T22:25:40.358Z,101761.16
2023-04-05T22:28:08.013Z,101758.69
2023-04-05T22:30:43.640Z,101763.16
2023-04-05T22:33:12.898Z,101765.97
2023-04-05T22:35:40.974Z,101759.13
2023-04-05T22:38:10.265Z,101765.41
2023-04-05T22:40:38.042Z,101763.72
2023-04-05T22:43:05.753Z,101764.63
2023-04-05T22:45:33.447Z,101763.00
2023-04-05T22:48:01.322Z,101760.44
2023-04-05T22:50:28.982Z,101751.88
2023-04-05T22:52:56.760Z,101753.78
2023-04-05T22:55:26.003Z,101755.75
2023-04-05T22:57:53.623Z,101747.38
2023-04-05T23:00:21.566Z,101744.91
2023-04-05T23:02:49.324Z,101748.53
2023-04-05T23:05:17.180Z,101749.63
2023-04-05T23:07:44.880Z,101741.78
2023-04-05T23:10:12.642Z,101743.72
2023-04-05T23:12:41.740Z,101730.97
2023-04-05T23:15:10.213Z,101734.63
2023-04-05T23:17:37.988Z,101730.34
2023-04-05T23:20:06.784Z,101732.19
2023-04-05T23:22:35.940Z,101725.53
2023-04-05T23:25:04.372Z,101722.16
2023-04-05T23:27:32.019Z,101731.06
2023-04-05T23:30:01.214Z,101724.28
2023-04-05T23:32:28.957Z,101722.72
2023-04-05T23:34:56.693Z,101714.06
2023-04-05T23:37:24.380Z,101712.50
2023-04-05T23:39:52.048Z,101713.66
2023-04-05T23:42:19.706Z,101711.09
2023-04-05T23:44:47.418Z,101706.00
2023-04-05T23:47:16.752Z,101710.41
2023-04-05T23:49:44.425Z,101703.66
2023-04-05T23:52:12.089Z,101706.44
2023-04-05T23:54:39.808Z,101696.03
2023-04-05T23:57:07.507Z,101691.81
2023-04-05T23:59:35.168Z,101690.97
